To NAV CANADA Home Page Login to a new session Search on AWWS site Feedback and Comments Disclaimer Vers la page française équivalente Tips FAQ What's new on the site To the Forecasts and Observations / NOTAM section To "File a Flight Plan" website Publications and other links Update of the User's profile FIC Telephone Numbers My Weather Data Folder Route Weather Data Regional Weather Data Local Weather Data To the Forecasts and Observations / NOTAM section
Request Generated 10/18/2017 at 03:47:56 UTC . Weather information available at that time is displayed.

METAR/TAF

MARYS HARBOUR/NL    (show WxCam)

METAR CYMH 180300Z AUTO 27006KT 9SM OVC050 01/M01 A2990 RMK SLP127=
METAR CYMH 180200Z AUTO 25007KT 9SM OVC050 01/M01 A2989 RMK SLP125=
METAR CYMH 180100Z AUTO 25005KT 9SM OVC055 01/M01 A2988 RMK SLP122=

*** REMARK        : Forecast period has ended; this was the last TAF issued
*** REMARQUE : La période de prévision est échue; ceci était le dernier TAF qui a été émis
TAF AMD CYMH 172006Z 1720/1803 28008KT P6SM SCT050
RMK FCST BASED ON AUTO OBS. NXT FCST WILL BE ISSUED AT 180845Z=
Your time UTC time
Weather data provided by Environment Canada and NAV CANADA